Time;durP1;ratioP1;P1;durP2;ratioP2;P2;SDS_P1;SDS_P2;PMS_P1;PMS_P2;Temp;Humidity;BMP_temperature;BMP_pressure;BME280_temperature;BME280_humidity;BME280_pressure;Samples;Min_cycle;Max_cycle;Signal;HPM_P1;HPM_P2
2022/04/27 00:01:25;;;;;;;0.40;0.20;;;7.30;99.90;;;;;;5113961;27;20474;-91
2022/04/27 00:03:53;;;;;;;0.30;0.10;;;7.30;99.90;;;;;;5109828;27;20458;-90
2022/04/27 00:06:20;;;;;;;0.30;0.10;;;7.40;99.90;;;;;;5110428;27;20534;-91
2022/04/27 00:08:47;;;;;;;0.30;0.10;;;7.30;99.90;;;;;;5107575;28;20844;-90
2022/04/27 00:11:16;;;;;;;0.30;0.20;;;7.40;99.90;;;;;;5105766;28;20616;-91
2022/04/27 00:13:43;;;;;;;0.40;0.20;;;7.30;99.90;;;;;;5109816;27;20799;-91
2022/04/27 00:16:10;;;;;;;0.30;0.20;;;7.30;99.90;;;;;;5106942;27;21343;-91
2022/04/27 00:18:38;;;;;;;0.30;0.10;;;7.40;99.90;;;;;;5111432;27;20526;-90
2022/04/27 00:21:05;;;;;;;0.30;0.10;;;7.30;99.90;;;;;;5109665;27;20517;-91
2022/04/27 00:23:33;;;;;;;0.87;0.40;;;7.30;99.90;;;;;;5107858;27;20461;-91
2022/04/27 00:26:00;;;;;;;0.30;0.10;;;7.30;99.90;;;;;;5107056;28;20450;-91
2022/04/27 00:28:29;;;;;;;0.30;0.10;;;7.30;99.90;;;;;;5110908;27;20461;-91
2022/04/27 00:30:56;;;;;;;0.30;0.20;;;7.40;99.90;;;;;;5110422;27;20578;-91
2022/04/27 00:33:23;;;;;;;0.37;0.27;;;7.40;99.90;;;;;;5112971;27;20840;-90
2022/04/27 00:35:51;;;;;;;0.30;0.10;;;7.20;99.90;;;;;;5107335;28;20910;-90
2022/04/27 00:38:18;;;;;;;0.30;0.10;;;7.20;99.90;;;;;;5105549;28;20466;-90
2022/04/27 00:40:45;;;;;;;0.30;0.20;;;7.20;99.90;;;;;;5107526;28;20549;-91
2022/04/27 00:43:14;;;;;;;0.30;0.20;;;7.20;99.90;;;;;;5106558;28;20458;-91
2022/04/27 00:45:43;;;;;;;0.30;0.20;;;7.30;99.90;;;;;;5110340;27;20453;-91
2022/04/27 00:48:10;;;;;;;0.40;0.20;;;7.20;99.90;;;;;;5110103;27;20499;-91
2022/04/27 00:50:38;;;;;;;0.30;0.10;;;7.20;99.90;;;;;;5108920;27;20794;-91
2022/04/27 00:53:05;;;;;;;0.30;0.10;;;7.10;99.90;;;;;;5125432;28;20450;-91
2022/04/27 00:55:32;;;;;;;0.30;0.20;;;6.90;99.90;;;;;;5125865;27;20988;-92
2022/04/27 00:58:00;;;;;;;0.30;0.10;;;6.80;99.90;;;;;;5129864;27;20480;-90
2022/04/27 01:00:28;;;;;;;0.30;0.10;;;6.80;99.90;;;;;;5124485;28;20450;-91
2022/04/27 01:02:56;;;;;;;0.30;0.20;;;6.80;99.90;;;;;;5122940;28;20971;-91
2022/04/27 01:05:23;;;;;;;0.40;0.30;;;6.90;99.90;;;;;;5125168;28;20499;-90
2022/04/27 01:07:50;;;;;;;0.40;0.30;;;6.80;99.90;;;;;;5131271;28;20438;-91
2022/04/27 01:10:18;;;;;;;0.30;0.10;;;6.80;99.90;;;;;;5133105;28;20494;-91
2022/04/27 01:12:45;;;;;;;0.30;0.10;;;6.70;99.90;;;;;;5134805;28;20480;-90
2022/04/27 01:15:13;;;;;;;0.30;0.10;;;6.60;99.90;;;;;;5131570;28;20446;-90
2022/04/27 01:17:40;;;;;;;0.30;0.10;;;6.60;99.90;;;;;;5128693;28;20449;-91
2022/04/27 01:20:10;;;;;;;0.30;0.10;;;6.60;99.90;;;;;;5130092;28;20497;-90
2022/04/27 01:22:38;;;;;;;0.30;0.20;;;6.60;99.90;;;;;;5129791;28;20473;-91
2022/04/27 01:25:06;;;;;;;0.30;0.10;;;6.70;99.90;;;;;;5123571;28;20502;-91
2022/04/27 01:27:33;;;;;;;0.30;0.20;;;6.60;99.90;;;;;;5128322;28;20461;-91
2022/04/27 01:30:00;;;;;;;0.40;0.20;;;6.60;99.90;;;;;;5113425;28;20511;-91
2022/04/27 01:32:27;;;;;;;0.30;0.10;;;6.50;99.90;;;;;;5114779;28;20438;-91
2022/04/27 01:34:54;;;;;;;0.30;0.10;;;6.60;99.90;;;;;;5107702;28;20519;-91
2022/04/27 01:40:09;;;;;;;0.30;0.10;;;6.50;99.90;;;;;;5105435;28;21208;-91
2022/04/27 01:42:36;;;;;;;0.30;0.10;;;6.50;99.90;;;;;;5117132;27;20465;-91
2022/04/27 01:45:03;;;;;;;0.80;0.60;;;6.50;99.90;;;;;;5111032;28;20506;-92
2022/04/27 01:47:30;;;;;;;0.30;0.10;;;6.60;99.90;;;;;;5106999;28;20461;-91
2022/04/27 01:49:57;;;;;;;0.30;0.10;;;6.60;99.90;;;;;;5105917;28;20937;-91
2022/04/27 01:55:10;;;;;;;1.10;0.57;;;6.50;99.90;;;;;;5108796;28;20449;-92
2022/04/27 01:57:37;;;;;;;0.30;0.17;;;6.60;99.90;;;;;;5112773;28;20458;-91
2022/04/27 02:00:06;;;;;;;0.30;0.10;;;6.60;99.90;;;;;;5111218;28;20454;-91
2022/04/27 02:02:34;;;;;;;0.30;0.10;;;6.60;99.90;;;;;;5106395;28;20495;-91
2022/04/27 02:05:01;;;;;;;0.30;0.10;;;6.50;99.90;;;;;;5103684;28;20470;-91
2022/04/27 02:07:28;;;;;;;0.30;0.10;;;6.50;99.90;;;;;;5118313;27;20842;-91
2022/04/27 02:09:55;;;;;;;0.50;0.27;;;6.60;99.90;;;;;;5119246;27;20461;-91
2022/04/27 02:12:23;;;;;;;0.30;0.10;;;6.60;99.90;;;;;;5112951;27;20822;-91
2022/04/27 02:14:50;;;;;;;0.40;0.40;;;6.60;99.90;;;;;;5115933;27;20457;-91
2022/04/27 02:17:17;;;;;;;1.10;0.60;;;6.60;99.90;;;;;;5108865;28;20523;-91
2022/04/27 02:19:44;;;;;;;0.30;0.10;;;6.70;99.90;;;;;;5115303;27;20494;-91
2022/04/27 02:22:11;;;;;;;0.30;0.20;;;6.70;99.90;;;;;;5109467;27;20457;-91
2022/04/27 02:24:38;;;;;;;0.53;0.53;;;6.60;99.90;;;;;;5114201;27;20530;-91
2022/04/27 02:27:05;;;;;;;0.30;0.10;;;6.50;99.90;;;;;;5112440;27;20510;-91
2022/04/27 02:29:33;;;;;;;0.30;0.20;;;6.40;99.90;;;;;;5115022;27;20992;-91
2022/04/27 02:32:00;;;;;;;0.30;0.20;;;6.50;99.90;;;;;;5112402;27;20556;-91
2022/04/27 02:34:27;;;;;;;0.30;0.10;;;6.40;99.90;;;;;;5126068;27;20457;-91
2022/04/27 02:36:54;;;;;;;0.30;0.20;;;6.40;99.90;;;;;;5138363;27;20516;-90
2022/04/27 02:39:21;;;;;;;0.30;0.10;;;6.40;99.90;;;;;;5124580;27;20460;-92
2022/04/27 02:41:49;;;;;;;0.30;0.20;;;6.50;99.90;;;;;;5128657;27;20457;-90
2022/04/27 02:44:16;;;;;;;0.60;0.43;;;6.50;99.90;;;;;;5109594;27;20496;-91
2022/04/27 02:46:44;;;;;;;0.30;0.20;;;6.40;99.90;;;;;;5117640;27;20449;-91
2022/04/27 02:51:55;;;;;;;0.30;0.20;;;6.40;99.90;;;;;;5112650;27;20614;-90
2022/04/27 02:54:23;;;;;;;0.30;0.10;;;6.40;99.90;;;;;;5106829;27;20467;-90
2022/04/27 02:56:50;;;;;;;0.30;0.10;;;6.50;99.90;;;;;;5118650;27;20454;-91
2022/04/27 02:59:17;;;;;;;0.30;0.20;;;6.40;99.90;;;;;;5114145;27;20503;-91
2022/04/27 03:01:46;;;;;;;0.40;0.20;;;6.40;99.90;;;;;;5113787;27;20465;-91
2022/04/27 03:04:13;;;;;;;0.40;0.30;;;6.40;99.90;;;;;;5112856;27;20529;-90
2022/04/27 03:06:40;;;;;;;0.30;0.13;;;6.30;99.90;;;;;;5110957;27;20962;-92
2022/04/27 03:09:07;;;;;;;0.30;0.20;;;6.20;99.90;;;;;;5107699;28;20844;-90
2022/04/27 03:11:34;;;;;;;0.30;0.20;;;6.20;99.90;;;;;;5114154;27;21000;-90
2022/04/27 03:14:01;;;;;;;0.30;0.20;;;6.30;99.90;;;;;;5110941;27;20461;-91
2022/04/27 03:16:28;;;;;;;0.30;0.10;;;6.30;99.90;;;;;;5111048;27;20507;-91
2022/04/27 03:18:56;;;;;;;0.40;0.20;;;6.30;99.90;;;;;;5108464;27;20538;-91
2022/04/27 03:21:23;;;;;;;0.30;0.30;;;6.30;99.90;;;;;;5108215;27;20458;-91
2022/04/27 03:23:51;;;;;;;0.30;0.10;;;6.30;99.90;;;;;;5114943;27;20468;-92
2022/04/27 03:26:18;;;;;;;0.30;0.20;;;6.30;99.90;;;;;;5120635;27;20529;-91
2022/04/27 03:28:45;;;;;;;0.30;0.10;;;6.30;99.90;;;;;;5110800;27;20444;-91
2022/04/27 03:31:12;;;;;;;0.53;0.53;;;6.40;99.90;;;;;;5107889;28;20767;-91
2022/04/27 03:33:38;;;;;;;0.30;0.20;;;6.40;99.90;;;;;;5110176;27;20521;-90
2022/04/27 03:36:08;;;;;;;0.30;0.10;;;6.40;99.90;;;;;;5116989;27;20505;-91
2022/04/27 03:38:35;;;;;;;0.30;0.10;;;6.40;99.90;;;;;;5112094;27;21098;-91
2022/04/27 03:41:02;;;;;;;0.60;0.30;;;6.40;99.90;;;;;;5109315;27;20458;-91
2022/04/27 03:43:29;;;;;;;0.30;0.20;;;6.50;99.90;;;;;;5120907;27;20450;-91
2022/04/27 03:45:56;;;;;;;0.30;0.20;;;6.50;99.90;;;;;;5122523;27;20945;-91
2022/04/27 03:48:23;;;;;;;0.30;0.20;;;6.50;99.90;;;;;;5111065;27;20470;-91
2022/04/27 03:50:50;;;;;;;0.30;0.10;;;6.50;99.90;;;;;;5108698;27;20461;-91
2022/04/27 03:53:19;;;;;;;0.30;0.20;;;6.60;99.90;;;;;;5115368;27;20452;-91
2022/04/27 03:55:46;;;;;;;0.30;0.10;;;6.70;99.90;;;;;;5120511;27;20519;-91
2022/04/27 03:58:13;;;;;;;0.30;0.20;;;6.50;99.90;;;;;;5108429;27;20468;-91
2022/04/27 04:00:40;;;;;;;0.30;0.10;;;6.60;99.90;;;;;;5125604;27;20451;-91
2022/04/27 04:03:07;;;;;;;0.30;0.20;;;6.50;99.90;;;;;;5109587;27;20475;-90
2022/04/27 04:05:34;;;;;;;0.50;0.50;;;6.60;99.90;;;;;;5127982;27;20434;-90
2022/04/27 04:08:01;;;;;;;1.07;0.60;;;6.60;99.90;;;;;;5131092;27;20470;-91
2022/04/27 04:10:29;;;;;;;0.93;0.60;;;6.60;99.90;;;;;;5132487;27;20494;-92
2022/04/27 04:12:57;;;;;;;0.53;0.53;;;6.70;99.90;;;;;;5132919;27;20481;-91
2022/04/27 04:15:24;;;;;;;0.30;0.10;;;6.80;99.90;;;;;;5128501;27;20438;-90
2022/04/27 04:17:51;;;;;;;0.57;0.30;;;6.70;99.90;;;;;;5135979;27;20468;-90
2022/04/27 04:20:18;;;;;;;0.30;0.10;;;6.70;99.90;;;;;;5132644;27;20858;-91
2022/04/27 04:22:46;;;;;;;0.30;0.10;;;6.80;99.90;;;;;;5115382;27;20482;-90
2022/04/27 04:30:45;;;;;;;0.40;0.40;;;6.80;99.90;;;;;;5112193;27;20447;-90
2022/04/27 04:33:12;;;;;;;0.30;0.17;;;6.80;99.90;;;;;;5110877;27;20577;-91
2022/04/27 04:35:39;;;;;;;0.30;0.20;;;6.80;99.90;;;;;;5111602;27;20925;-90
2022/04/27 04:38:06;;;;;;;0.30;0.20;;;6.80;99.90;;;;;;5109410;27;20461;-91
2022/04/27 04:40:34;;;;;;;0.30;0.30;;;6.80;99.90;;;;;;5111186;27;20495;-90
2022/04/27 04:43:03;;;;;;;0.30;0.20;;;6.80;99.90;;;;;;5108718;27;20518;-91
2022/04/27 04:45:30;;;;;;;0.40;0.30;;;6.80;99.90;;;;;;5112668;27;20674;-91
2022/04/27 04:47:56;;;;;;;0.30;0.10;;;6.80;99.90;;;;;;5116274;27;20973;-91
2022/04/27 04:50:23;;;;;;;0.30;0.20;;;6.80;99.90;;;;;;5108999;27;20503;-90
2022/04/27 04:52:50;;;;;;;0.30;0.17;;;6.90;99.90;;;;;;5110006;27;20534;-90
2022/04/27 04:55:18;;;;;;;0.30;0.10;;;7.00;99.90;;;;;;5108392;27;20462;-91
2022/04/27 04:57:44;;;;;;;0.30;0.10;;;7.00;99.90;;;;;;5110952;27;20526;-90
2022/04/27 05:00:13;;;;;;;0.30;0.20;;;7.00;99.90;;;;;;5112201;27;20856;-91
2022/04/27 05:02:40;;;;;;;1.30;0.37;;;6.90;99.90;;;;;;5111397;27;20469;-90
2022/04/27 05:05:08;;;;;;;0.30;0.20;;;6.90;99.90;;;;;;5111690;27;20464;-91
2022/04/27 05:07:35;;;;;;;0.30;0.10;;;7.00;99.90;;;;;;5109356;28;20954;-90
2022/04/27 05:10:02;;;;;;;0.40;0.40;;;7.00;99.90;;;;;;5117833;28;20506;-90
2022/04/27 05:12:30;;;;;;;0.30;0.10;;;6.90;99.90;;;;;;5120848;27;20482;-91
2022/04/27 05:14:57;;;;;;;0.47;0.20;;;6.90;99.90;;;;;;5108177;28;20461;-91
2022/04/27 05:17:25;;;;;;;0.40;0.20;;;7.00;99.90;;;;;;5114832;28;20468;-91
2022/04/27 05:19:53;;;;;;;0.30;0.10;;;7.00;99.90;;;;;;5121460;28;20866;-91
2022/04/27 05:22:20;;;;;;;0.30;0.10;;;7.10;99.90;;;;;;5105272;28;20573;-90
2022/04/27 05:24:47;;;;;;;0.30;0.10;;;7.00;99.90;;;;;;5107726;28;20484;-90
2022/04/27 05:27:14;;;;;;;0.30;0.20;;;7.00;99.90;;;;;;5106483;28;20464;-91
2022/04/27 05:32:28;;;;;;;0.30;0.10;;;7.20;99.90;;;;;;5109225;28;20479;-90
2022/04/27 05:34:55;;;;;;;0.30;0.10;;;7.30;99.90;;;;;;5119408;27;20796;-90
2022/04/27 05:37:22;;;;;;;0.40;0.40;;;7.30;99.90;;;;;;5143317;28;20452;-90
2022/04/27 05:39:49;;;;;;;0.30;0.10;;;7.30;99.90;;;;;;5140937;27;20499;-90
2022/04/27 05:42:16;;;;;;;0.30;0.20;;;7.30;99.90;;;;;;5117499;27;20518;-91
2022/04/27 05:44:43;;;;;;;0.30;0.20;;;7.30;99.90;;;;;;5122115;27;20792;-91
2022/04/27 05:47:10;;;;;;;0.30;0.20;;;7.30;99.90;;;;;;5121127;27;20462;-90
2022/04/27 05:49:38;;;;;;;0.30;0.20;;;7.40;99.90;;;;;;5112159;28;20455;-93
2022/04/27 05:52:06;;;;;;;0.50;0.50;;;7.60;99.90;;;;;;5112741;27;20549;-93
2022/04/27 05:54:33;;;;;;;0.30;0.10;;;7.50;99.90;;;;;;5120266;27;20473;-92
2022/04/27 05:57:00;;;;;;;0.30;0.20;;;7.60;99.90;;;;;;5128919;27;20822;-90
2022/04/27 05:59:28;;;;;;;0.30;0.20;;;7.70;99.90;;;;;;5118691;27;20461;-90
2022/04/27 06:01:55;;;;;;;0.30;0.20;;;7.70;99.90;;;;;;5113752;27;21008;-91
2022/04/27 06:04:22;;;;;;;0.30;0.20;;;7.70;99.90;;;;;;5105464;27;20765;-91
2022/04/27 06:06:50;;;;;;;0.30;0.20;;;7.80;99.90;;;;;;5112876;27;20530;-90
2022/04/27 06:09:17;;;;;;;0.30;0.20;;;7.90;99.90;;;;;;5110911;27;20925;-90
2022/04/27 06:11:44;;;;;;;2.87;1.43;;;8.00;99.90;;;;;;5117926;27;20546;-92
2022/04/27 06:14:11;;;;;;;0.93;0.60;;;8.10;99.90;;;;;;5116308;27;20828;-92
2022/04/27 06:16:38;;;;;;;0.30;0.10;;;8.20;99.90;;;;;;5114174;27;20554;-91
2022/04/27 06:19:05;;;;;;;0.77;0.77;;;8.30;99.90;;;;;;5112390;27;20479;-94
2022/04/27 06:21:33;;;;;;;0.40;0.40;;;8.60;99.90;;;;;;5110875;27;20461;-91
2022/04/27 06:24:04;;;;;;;0.87;0.87;;;8.80;99.90;;;;;;5113867;27;20468;-90
2022/04/27 06:26:33;;;;;;;0.30;0.20;;;9.00;99.90;;;;;;5124992;27;20442;-90
2022/04/27 06:29:00;;;;;;;0.30;0.20;;;9.40;99.90;;;;;;5133339;27;20465;-91
2022/04/27 06:31:27;;;;;;;0.70;0.70;;;9.50;99.90;;;;;;5136046;27;20446;-90
2022/04/27 06:33:54;;;;;;;0.30;0.20;;;9.50;99.90;;;;;;5131597;27;20484;-90
2022/04/27 06:36:21;;;;;;;1.43;0.47;;;9.50;99.90;;;;;;5110590;27;20533;-91
2022/04/27 06:38:48;;;;;;;0.40;0.30;;;9.40;99.90;;;;;;5118882;27;20466;-90
2022/04/27 06:41:17;;;;;;;3.53;1.23;;;9.30;99.90;;;;;;5123124;27;20438;-91
2022/04/27 06:43:43;;;;;;;0.30;0.20;;;9.30;99.90;;;;;;5133810;27;20454;-91
2022/04/27 06:46:10;;;;;;;0.30;0.20;;;9.20;99.90;;;;;;5131848;27;20461;-90
2022/04/27 06:48:37;;;;;;;0.30;0.20;;;9.00;99.90;;;;;;5136627;27;20457;-91
2022/04/27 06:51:05;;;;;;;0.40;0.30;;;9.00;99.90;;;;;;5130658;28;20438;-90
2022/04/27 06:53:32;;;;;;;0.30;0.10;;;9.00;99.90;;;;;;5143792;27;20923;-90
2022/04/27 06:55:59;;;;;;;1.23;0.30;;;8.90;99.90;;;;;;5131025;28;20468;-90
2022/04/27 06:58:27;;;;;;;0.93;0.60;;;8.90;99.90;;;;;;5111050;27;20477;-90
2022/04/27 07:00:54;;;;;;;0.60;0.50;;;8.70;99.90;;;;;;5114976;28;20481;-91
2022/04/27 07:03:21;;;;;;;0.40;0.20;;;8.80;99.90;;;;;;5126797;27;20837;-90
2022/04/27 07:05:48;;;;;;;0.70;0.57;;;8.90;99.90;;;;;;5119141;27;20522;-89
2022/04/27 07:08:15;;;;;;;0.30;0.20;;;8.90;99.90;;;;;;5125510;27;20465;-91
2022/04/27 07:10:46;;;;;;;0.30;0.20;;;8.80;99.90;;;;;;5110842;28;20825;-90
2022/04/27 07:13:13;;;;;;;0.30;0.20;;;8.80;99.90;;;;;;5117281;27;20496;-91
2022/04/27 07:15:41;;;;;;;0.33;0.20;;;8.60;99.90;;;;;;5149718;27;20457;-92
2022/04/27 07:18:08;;;;;;;0.50;0.50;;;8.50;99.90;;;;;;5147840;27;20466;-92
2022/04/27 07:20:35;;;;;;;1.07;1.07;;;8.50;99.90;;;;;;5140388;27;20972;-90
2022/04/27 07:23:02;;;;;;;0.40;0.30;;;8.50;99.90;;;;;;5128698;28;20479;-92
2022/04/27 07:25:29;;;;;;;0.40;0.40;;;8.40;99.90;;;;;;5114937;27;20450;-92
2022/04/27 07:27:56;;;;;;;0.30;0.20;;;8.50;99.90;;;;;;5127726;27;20541;-94
2022/04/27 07:30:24;;;;;;;0.40;0.30;;;8.50;99.90;;;;;;5121340;27;20522;-91
2022/04/27 07:32:52;;;;;;;0.63;0.20;;;8.30;99.90;;;;;;5127261;27;20487;-90
2022/04/27 07:35:19;;;;;;;0.30;0.20;;;8.30;99.90;;;;;;5112116;27;20598;-91
2022/04/27 07:37:46;;;;;;;0.40;0.30;;;8.30;99.90;;;;;;5120396;27;20462;-93
2022/04/27 07:40:15;;;;;;;6.80;3.00;;;8.50;99.90;;;;;;5111104;27;20563;-90
2022/04/27 07:42:42;;;;;;;2.87;2.40;;;8.50;99.90;;;;;;5116121;27;20455;-91
2022/04/27 07:45:09;;;;;;;0.60;0.60;;;8.60;99.90;;;;;;5110847;27;21189;-91
2022/04/27 07:47:44;;;;;;;0.40;0.33;;;8.80;99.90;;;;;;5108808;27;20458;-91
2022/04/27 07:50:15;;;;;;;0.50;0.30;;;9.00;99.90;;;;;;5108356;27;20906;-91
2022/04/27 07:52:42;;;;;;;0.33;0.20;;;9.00;99.90;;;;;;5106085;27;20538;-91
2022/04/27 07:55:11;;;;;;;0.40;0.20;;;9.10;99.90;;;;;;5107444;27;20516;-91
2022/04/27 07:57:38;;;;;;;1.10;1.10;;;9.10;99.90;;;;;;5105923;28;20446;-90
2022/04/27 08:00:08;;;;;;;0.70;0.70;;;9.10;99.90;;;;;;5110850;27;20454;-91
2022/04/27 08:02:36;;;;;;;0.30;0.20;;;9.40;99.90;;;;;;5109853;27;20453;-90
2022/04/27 08:05:03;;;;;;;0.93;0.93;;;9.70;99.90;;;;;;5109349;27;20477;-91
2022/04/27 08:07:37;;;;;;;0.30;0.20;;;9.60;99.90;;;;;;5106775;27;20534;-91
2022/04/27 08:10:09;;;;;;;0.80;0.77;;;9.70;99.90;;;;;;5109660;27;20507;-91
2022/04/27 08:12:37;;;;;;;0.40;0.30;;;9.80;99.90;;;;;;5106878;28;20542;-91
2022/04/27 08:15:04;;;;;;;0.30;0.20;;;9.80;99.90;;;;;;5108719;27;20473;-91
2022/04/27 08:17:32;;;;;;;0.30;0.20;;;9.80;99.90;;;;;;5113732;27;20513;-91
2022/04/27 08:22:42;;;;;;;0.30;0.20;;;9.90;99.90;;;;;;5107358;27;20540;-91
2022/04/27 08:25:10;;;;;;;0.60;0.50;;;9.90;99.90;;;;;;5109840;27;20503;-92
2022/04/27 08:27:37;;;;;;;0.30;0.30;;;10.00;99.90;;;;;;5125986;27;20517;-90
2022/04/27 08:30:06;;;;;;;1.60;0.83;;;10.10;99.90;;;;;;5110248;27;20466;-90
2022/04/27 08:32:33;;;;;;;1.13;1.13;;;10.00;99.90;;;;;;5105638;27;20535;-90
2022/04/27 08:35:00;;;;;;;0.40;0.30;;;10.20;99.90;;;;;;5110317;27;20449;-90
2022/04/27 08:37:27;;;;;;;0.57;0.40;;;10.00;99.90;;;;;;5105398;28;20506;-90
2022/04/27 08:39:55;;;;;;;0.83;0.43;;;10.00;99.90;;;;;;5108494;27;20474;-90
2022/04/27 08:42:22;;;;;;;0.30;0.20;;;10.20;99.90;;;;;;5107338;27;20458;-91
2022/04/27 08:44:49;;;;;;;0.30;0.20;;;10.20;99.90;;;;;;5105705;27;20507;-89
2022/04/27 08:47:16;;;;;;;0.40;0.30;;;10.30;99.90;;;;;;5106368;27;20465;-89
2022/04/27 08:49:43;;;;;;;0.50;0.50;;;10.40;99.90;;;;;;5105082;27;20515;-89
2022/04/27 08:52:13;;;;;;;1.13;0.67;;;10.20;99.90;;;;;;5106071;27;20469;-90
2022/04/27 08:54:40;;;;;;;0.40;0.23;;;10.10;99.90;;;;;;5109448;27;20465;-90
2022/04/27 08:57:09;;;;;;;0.53;0.50;;;9.90;99.90;;;;;;5110921;27;20518;-89
2022/04/27 08:59:37;;;;;;;1.57;1.57;;;9.90;99.90;;;;;;5108835;27;20573;-90
2022/04/27 09:02:25;;;;;;;1.13;0.30;;;10.00;99.90;;;;;;5112603;27;20542;-89
2022/04/27 09:05:07;;;;;;;0.30;0.20;;;9.90;99.90;;;;;;5107566;27;20454;-89
2022/04/27 09:07:37;;;;;;;0.30;0.20;;;9.90;99.90;;;;;;5108856;28;20541;-89
2022/04/27 09:10:05;;;;;;;0.40;0.30;;;10.10;99.90;;;;;;5113523;28;20442;-90
2022/04/27 09:12:34;;;;;;;0.40;0.30;;;10.30;99.90;;;;;;5133834;28;20446;-90
2022/04/27 09:15:06;;;;;;;0.40;0.30;;;10.30;99.90;;;;;;5128126;27;20776;-90
2022/04/27 09:23:05;;;;;;;0.40;0.40;;;10.60;99.90;;;;;;5117751;27;20467;-90
2022/04/27 09:25:33;;;;;;;0.37;0.23;;;10.70;99.90;;;;;;5111615;27;20454;-90
2022/04/27 09:28:03;;;;;;;0.60;0.60;;;10.90;99.90;;;;;;5112669;27;20473;-89
2022/04/27 09:30:31;;;;;;;0.70;0.70;;;10.90;99.90;;;;;;5116945;27;20456;-90
2022/04/27 09:32:58;;;;;;;0.40;0.40;;;10.80;99.90;;;;;;5112946;27;20542;-90
2022/04/27 09:35:34;;;;;;;0.40;0.20;;;11.00;99.90;;;;;;5109700;27;20475;-90
2022/04/27 09:38:16;;;;;;;0.30;0.20;;;10.90;99.90;;;;;;5123849;27;20509;-89
2022/04/27 09:40:45;;;;;;;0.67;0.67;;;11.00;99.90;;;;;;5116384;27;20457;-89
2022/04/27 09:43:15;;;;;;;0.87;0.87;;;11.10;99.90;;;;;;5127767;27;20437;-89
2022/04/27 09:45:43;;;;;;;0.40;0.40;;;11.10;99.90;;;;;;5152341;27;20500;-91
2022/04/27 09:48:18;;;;;;;1.13;1.13;;;11.20;99.90;;;;;;5139280;27;20479;-89
2022/04/27 09:50:50;;;;;;;2.93;1.27;;;11.10;99.90;;;;;;5126496;27;20982;-89
2022/04/27 09:53:18;;;;;;;0.57;0.57;;;11.00;99.90;;;;;;5111561;27;20484;-90
2022/04/27 09:55:48;;;;;;;0.40;0.27;;;11.00;99.90;;;;;;5116538;27;20462;-90
2022/04/27 09:58:19;;;;;;;2.00;1.90;;;10.90;99.90;;;;;;5109894;27;20453;-89
2022/04/27 10:00:47;;;;;;;0.80;0.70;;;11.20;99.90;;;;;;5112854;27;20537;-89
2022/04/27 10:03:16;;;;;;;0.63;0.63;;;11.30;99.90;;;;;;5117911;27;20544;-89
2022/04/27 10:05:43;;;;;;;0.40;0.20;;;11.40;99.90;;;;;;5120969;27;20980;-89
2022/04/27 10:08:13;;;;;;;0.43;0.43;;;11.30;99.90;;;;;;5119802;27;20521;-90
2022/04/27 10:10:41;;;;;;;0.30;0.20;;;11.30;99.90;;;;;;5120983;27;20462;-89
2022/04/27 10:13:12;;;;;;;0.30;0.20;;;11.20;99.90;;;;;;5124884;27;20496;-89
2022/04/27 10:15:44;;;;;;;0.30;0.20;;;11.50;99.90;;;;;;5110627;27;20941;-89
2022/04/27 10:18:12;;;;;;;0.40;0.23;;;11.30;99.90;;;;;;5139096;27;20486;-89
2022/04/27 10:20:39;;;;;;;0.73;0.73;;;11.00;99.90;;;;;;5134181;27;20482;-89
2022/04/27 10:23:21;;;;;;;0.93;0.60;;;11.10;99.90;;;;;;5123115;27;20476;-89
2022/04/27 10:26:08;;;;;;;2.87;0.60;;;11.20;99.90;;;;;;5121980;27;20491;-89
2022/04/27 10:28:38;;;;;;;0.50;0.50;;;11.50;99.90;;;;;;5112890;27;20466;-90
2022/04/27 10:31:08;;;;;;;0.50;0.50;;;11.40;99.90;;;;;;5115062;27;20457;-89
2022/04/27 10:33:50;;;;;;;0.30;0.20;;;11.50;99.90;;;;;;5119192;27;20573;-90
2022/04/27 10:36:37;;;;;;;0.40;0.30;;;11.80;99.90;;;;;;5127809;27;20498;-89
2022/04/27 10:39:25;;;;;;;0.53;0.47;;;11.90;99.90;;;;;;5112926;27;20467;-89
2022/04/27 10:42:18;;;;;;;0.50;0.23;;;11.80;99.90;;;;;;5106390;27;20485;-89
2022/04/27 10:45:10;;;;;;;1.63;1.53;;;11.80;99.90;;;;;;5123379;27;20799;-89
2022/04/27 10:47:42;;;;;;;1.60;0.20;;;11.80;99.90;;;;;;5115686;27;20585;-89
2022/04/27 10:50:23;;;;;;;2.30;1.70;;;11.80;99.90;;;;;;5112094;27;20969;-89
2022/04/27 10:52:52;;;;;;;0.30;0.20;;;11.80;99.90;;;;;;5110338;27;20862;-90
2022/04/27 10:55:41;;;;;;;6.73;0.57;;;11.80;99.90;;;;;;5110896;27;20467;-90
2022/04/27 10:58:15;;;;;;;0.30;0.20;;;11.90;99.90;;;;;;5114972;27;20549;-89
2022/04/27 11:01:25;;;;;;;1.40;1.40;;;12.30;99.90;;;;;;5107565;27;20903;-88
2022/04/27 11:04:11;;;;;;;0.50;0.30;;;12.50;99.90;;;;;;5115738;27;20497;-89
2022/04/27 11:07:14;;;;;;;1.23;0.30;;;12.50;99.90;;;;;;5109811;27;20461;-90
2022/04/27 11:10:10;;;;;;;0.40;0.20;;;12.60;99.90;;;;;;5117662;27;20483;-90
2022/04/27 11:12:39;;;;;;;0.40;0.30;;;12.60;99.90;;;;;;5119400;27;20455;-89
2022/04/27 11:15:07;;;;;;;0.60;0.60;;;12.60;99.90;;;;;;5127564;27;20489;-90
2022/04/27 11:17:34;;;;;;;0.77;0.30;;;12.10;99.90;;;;;;5116663;27;20463;-89
2022/04/27 11:20:03;;;;;;;0.40;0.30;;;11.70;99.90;;;;;;5117756;27;20554;-90
2022/04/27 11:22:38;;;;;;;0.30;0.20;;;11.40;99.90;;;;;;5118718;27;20530;-90
2022/04/27 11:25:08;;;;;;;0.50;0.50;;;11.40;99.90;;;;;;5108468;28;20481;-90
2022/04/27 11:27:36;;;;;;;1.37;0.40;;;11.60;99.90;;;;;;5108903;27;20993;-89
2022/04/27 11:30:06;;;;;;;0.30;0.20;;;11.60;99.90;;;;;;5108869;27;20913;-90
2022/04/27 11:32:34;;;;;;;0.77;0.70;;;11.50;99.90;;;;;;5119116;27;20477;-90
2022/04/27 11:35:03;;;;;;;0.40;0.30;;;11.50;99.90;;;;;;5111881;27;20518;-90
2022/04/27 11:37:35;;;;;;;0.50;0.40;;;11.70;99.90;;;;;;5123961;27;20515;-90
2022/04/27 11:40:13;;;;;;;0.93;0.93;;;11.60;99.90;;;;;;5112282;27;20461;-89
2022/04/27 11:42:43;;;;;;;0.30;0.20;;;11.50;99.90;;;;;;5108800;27;20554;-90
2022/04/27 11:45:12;;;;;;;1.67;0.40;;;11.60;99.90;;;;;;5110924;27;20446;-90
2022/04/27 11:47:39;;;;;;;1.90;0.67;;;11.60;99.90;;;;;;5113123;27;20485;-91
2022/04/27 11:50:08;;;;;;;1.77;1.30;;;11.60;99.90;;;;;;5110206;27;20462;-89
2022/04/27 11:52:39;;;;;;;0.40;0.40;;;11.60;99.90;;;;;;5109892;27;20478;-90
2022/04/27 11:55:10;;;;;;;3.13;0.73;;;11.50;99.90;;;;;;5108611;27;20867;-90
2022/04/27 11:57:37;;;;;;;0.30;0.20;;;11.50;99.90;;;;;;5110191;27;20474;-90
2022/04/27 12:00:05;;;;;;;0.30;0.10;;;11.60;99.90;;;;;;5115927;27;20453;-90
2022/04/27 12:02:34;;;;;;;0.30;0.20;;;11.70;99.90;;;;;;5112871;27;20481;-90
2022/04/27 12:05:02;;;;;;;0.50;0.50;;;11.60;99.90;;;;;;5112575;27;20526;-90
2022/04/27 12:07:51;;;;;;;0.40;0.33;;;11.50;99.90;;;;;;5108087;27;20472;-95
2022/04/27 12:10:18;;;;;;;0.30;0.20;;;11.50;99.90;;;;;;5120006;27;20682;-89
2022/04/27 12:12:45;;;;;;;0.30;0.20;;;11.20;99.90;;;;;;5115431;27;20767;-89
2022/04/27 12:15:14;;;;;;;0.30;0.20;;;11.10;99.90;;;;;;5109019;27;21016;-89
2022/04/27 12:17:49;;;;;;;0.30;0.20;;;11.10;99.90;;;;;;5120449;27;20434;-89
2022/04/27 12:20:31;;;;;;;0.30;0.23;;;11.10;99.90;;;;;;5134098;27;20465;-89
2022/04/27 12:23:02;;;;;;;0.30;0.20;;;11.10;99.90;;;;;;5133828;27;20449;-89
2022/04/27 12:25:41;;;;;;;0.30;0.20;;;11.30;99.90;;;;;;5118772;28;20456;-89
2022/04/27 12:28:11;;;;;;;0.30;0.20;;;11.50;99.90;;;;;;5105491;28;20561;-88
2022/04/27 12:30:42;;;;;;;0.30;0.10;;;11.20;99.90;;;;;;5098011;28;20547;-89
2022/04/27 12:33:10;;;;;;;0.40;0.27;;;11.30;99.90;;;;;;5090398;27;20474;-89
2022/04/27 12:38:23;;;;;;;0.97;0.97;;;11.40;99.90;;;;;;5092216;28;20497;-89
2022/04/27 12:40:50;;;;;;;0.40;0.30;;;11.30;99.90;;;;;;5106679;28;20434;-89
2022/04/27 12:43:20;;;;;;;0.60;0.40;;;11.40;99.90;;;;;;5114996;28;20451;-89
2022/04/27 12:46:05;;;;;;;0.40;0.27;;;11.40;99.90;;;;;;5104072;28;20917;-89
2022/04/27 12:48:33;;;;;;;1.13;0.70;;;11.10;99.90;;;;;;5097486;28;20446;-89
2022/04/27 12:51:01;;;;;;;0.80;0.53;;;11.00;99.90;;;;;;5096093;28;20469;-89
2022/04/27 12:53:29;;;;;;;0.30;0.10;;;11.00;99.90;;;;;;5090581;28;20466;-88
2022/04/27 12:56:11;;;;;;;0.40;0.40;;;11.10;99.90;;;;;;5087888;28;20462;-89
2022/04/27 12:58:43;;;;;;;0.30;0.20;;;10.90;99.90;;;;;;5092198;28;20459;-90
2022/04/27 13:01:28;;;;;;;1.27;0.60;;;11.00;99.90;;;;;;5090620;28;20596;-90
2022/04/27 13:03:55;;;;;;;0.30;0.20;;;11.00;99.90;;;;;;5094666;28;20546;-90
2022/04/27 13:06:23;;;;;;;0.30;0.20;;;10.90;99.90;;;;;;5091301;28;20988;-90
2022/04/27 13:08:52;;;;;;;0.40;0.30;;;11.00;99.90;;;;;;5110323;28;20462;-90
2022/04/27 13:14:04;;;;;;;0.40;0.20;;;10.60;99.90;;;;;;5112253;28;20526;-90
2022/04/27 13:16:32;;;;;;;0.30;0.20;;;10.90;99.90;;;;;;5107035;28;20459;-90
2022/04/27 13:18:59;;;;;;;0.37;0.30;;;11.10;99.90;;;;;;5091654;28;20470;-90
2022/04/27 13:21:26;;;;;;;0.40;0.37;;;11.10;99.90;;;;;;5092618;28;20547;-90
2022/04/27 13:23:54;;;;;;;0.30;0.20;;;11.20;99.90;;;;;;5091514;28;20528;-90
2022/04/27 13:26:21;;;;;;;0.40;0.27;;;11.30;99.90;;;;;;5096378;28;20519;-90
2022/04/27 13:28:48;;;;;;;0.40;0.30;;;11.50;99.90;;;;;;5094087;28;20453;-90
2022/04/27 13:31:15;;;;;;;0.30;0.20;;;11.40;99.90;;;;;;5100753;28;20443;-90
2022/04/27 13:33:42;;;;;;;0.40;0.40;;;11.50;99.90;;;;;;5090838;28;20460;-89